Time;durP1;ratioP1;P1;durP2;ratioP2;P2;SDS_P1;SDS_P2;PMS_P1;PMS_P2;Temp;Humidity;BMP_temperature;BMP_pressure;BME280_temperature;BME280_humidity;BME280_pressure;Samples;Min_cycle;Max_cycle;Signal;HPM_P1;HPM_P2
2022/04/25 00:02:15;;;;;;;6.55;3.60;;;;;;;;;;4804591;29;20027;-83
2022/04/25 00:04:40;;;;;;;5.55;3.63;;;;;;;;;;4808435;29;20408;-83
2022/04/25 00:07:06;;;;;;;5.30;3.30;;;;;;;;;;4812019;29;20501;-84
2022/04/25 00:09:31;;;;;;;6.43;3.58;;;;;;;;;;4820193;29;20462;-83
2022/04/25 00:11:57;;;;;;;8.88;3.55;;;;;;;;;;4820999;29;20381;-84
2022/04/25 00:14:22;;;;;;;6.20;4.07;;;;;;;;;;4809541;29;20055;-83
2022/04/25 00:16:47;;;;;;;6.50;3.72;;;;;;;;;;4822665;29;20030;-85
2022/04/25 00:19:13;;;;;;;5.43;3.53;;;;;;;;;;4822415;29;20034;-83
2022/04/25 00:21:38;;;;;;;6.97;3.60;;;;;;;;;;4811036;29;20026;-84
2022/04/25 00:24:04;;;;;;;6.57;3.75;;;;;;;;;;4823620;29;20054;-83
2022/04/25 00:26:29;;;;;;;7.28;3.67;;;;;;;;;;4824076;29;20725;-83
2022/04/25 00:28:54;;;;;;;7.63;4.25;;;;;;;;;;4826919;29;20045;-84
2022/04/25 00:31:20;;;;;;;7.25;3.95;;;;;;;;;;4825953;29;20041;-83
2022/04/25 00:33:45;;;;;;;6.40;3.90;;;;;;;;;;4824355;29;20477;-84
2022/04/25 00:36:11;;;;;;;5.40;3.67;;;;;;;;;;4824505;29;20397;-83
2022/04/25 00:38:36;;;;;;;5.60;3.55;;;;;;;;;;4808717;29;20034;-83
2022/04/25 00:41:01;;;;;;;8.02;3.90;;;;;;;;;;4810502;29;20549;-84
2022/04/25 00:43:27;;;;;;;6.40;3.88;;;;;;;;;;4813456;29;20049;-85
2022/04/25 00:45:52;;;;;;;6.50;3.78;;;;;;;;;;4823848;29;20041;-83
2022/04/25 00:48:17;;;;;;;7.03;4.50;;;;;;;;;;4821226;29;20067;-84
2022/04/25 00:50:45;;;;;;;7.28;3.97;;;;;;;;;;4822590;29;20038;-83
2022/04/25 00:53:10;;;;;;;7.22;4.05;;;;;;;;;;4823083;29;20037;-86
2022/04/25 00:55:36;;;;;;;9.10;3.92;;;;;;;;;;4806573;29;20506;-85
2022/04/25 00:58:02;;;;;;;5.60;3.70;;;;;;;;;;4820492;29;20475;-84
2022/04/25 01:00:27;;;;;;;5.28;3.53;;;;;;;;;;4821228;29;20042;-83
2022/04/25 01:02:54;;;;;;;6.82;3.65;;;;;;;;;;4823224;29;20026;-83
2022/04/25 01:05:19;;;;;;;6.15;4.20;;;;;;;;;;4802258;29;20099;-83
2022/04/25 01:07:45;;;;;;;5.82;3.97;;;;;;;;;;4820608;29;20031;-83
2022/04/25 01:10:11;;;;;;;6.93;4.22;;;;;;;;;;4821941;29;20490;-86
2022/04/25 01:12:36;;;;;;;6.05;4.00;;;;;;;;;;4820172;29;20501;-83
2022/04/25 01:15:08;;;;;;;5.38;3.78;;;;;;;;;;4819991;29;20046;-83
2022/04/25 01:17:33;;;;;;;6.78;4.00;;;;;;;;;;4806948;29;20034;-86
2022/04/25 01:19:59;;;;;;;5.25;3.75;;;;;;;;;;4804531;29;20041;-83
2022/04/25 01:22:36;;;;;;;5.55;3.90;;;;;;;;;;4816146;29;20038;-84
2022/04/25 01:27:46;;;;;;;5.55;3.80;;;;;;;;;;4815466;29;20045;-85
2022/04/25 01:30:11;;;;;;;7.18;4.07;;;;;;;;;;4799954;29;20386;-86
2022/04/25 01:32:38;;;;;;;6.90;4.30;;;;;;;;;;4816176;29;20510;-83
2022/04/25 01:35:05;;;;;;;7.00;4.43;;;;;;;;;;4815481;29;20045;-85
2022/04/25 01:37:31;;;;;;;7.28;4.10;;;;;;;;;;4801369;29;20045;-84
2022/04/25 01:39:56;;;;;;;6.82;4.20;;;;;;;;;;4814827;29;20033;-83
2022/04/25 01:42:23;;;;;;;6.15;4.03;;;;;;;;;;4816015;29;20026;-84
2022/04/25 01:44:49;;;;;;;7.13;4.55;;;;;;;;;;4805586;29;20030;-84
2022/04/25 01:47:15;;;;;;;6.68;4.43;;;;;;;;;;4817532;29;20115;-83
2022/04/25 01:49:41;;;;;;;6.50;3.92;;;;;;;;;;4818978;29;20060;-85
2022/04/25 01:52:32;;;;;;;5.70;4.20;;;;;;;;;;4820148;29;20031;-83
2022/04/25 01:54:58;;;;;;;7.15;4.40;;;;;;;;;;4801857;29;20042;-83
2022/04/25 01:57:24;;;;;;;7.13;4.50;;;;;;;;;;4820666;29;20082;-83
2022/04/25 01:59:51;;;;;;;8.02;4.30;;;;;;;;;;4818142;29;20030;-84
2022/04/25 02:02:17;;;;;;;7.53;4.85;;;;;;;;;;4809176;29;20680;-83
2022/04/25 02:04:42;;;;;;;7.55;4.50;;;;;;;;;;4817807;29;20040;-83
2022/04/25 02:07:09;;;;;;;7.85;4.70;;;;;;;;;;4803768;29;20065;-83
2022/04/25 02:09:35;;;;;;;8.20;4.68;;;;;;;;;;4816552;29;20037;-85
2022/04/25 02:12:01;;;;;;;7.22;4.63;;;;;;;;;;4817589;29;20086;-86
2022/04/25 02:14:29;;;;;;;7.57;4.57;;;;;;;;;;4814871;29;20410;-83
2022/04/25 02:16:54;;;;;;;6.35;3.90;;;;;;;;;;4798931;29;20043;-83
2022/04/25 02:19:20;;;;;;;7.43;4.30;;;;;;;;;;4804783;29;20449;-83
2022/04/25 02:21:45;;;;;;;7.00;4.30;;;;;;;;;;4818063;29;20077;-83
2022/04/25 02:24:10;;;;;;;7.15;4.40;;;;;;;;;;4804188;29;20046;-83
2022/04/25 02:26:36;;;;;;;6.18;4.18;;;;;;;;;;4808935;29;20083;-83
2022/04/25 02:29:01;;;;;;;8.10;4.22;;;;;;;;;;4818040;29;20073;-83
2022/04/25 02:31:26;;;;;;;6.90;4.50;;;;;;;;;;4812370;29;21064;-83
2022/04/25 02:33:52;;;;;;;8.63;4.53;;;;;;;;;;4808161;29;20037;-85
2022/04/25 02:36:17;;;;;;;6.28;4.25;;;;;;;;;;4824496;29;20038;-83
2022/04/25 02:38:43;;;;;;;9.10;4.38;;;;;;;;;;4807242;29;20072;-83
2022/04/25 02:41:09;;;;;;;7.88;4.88;;;;;;;;;;4822379;29;20417;-84
2022/04/25 02:43:35;;;;;;;7.72;4.88;;;;;;;;;;4816554;29;20038;-83
2022/04/25 02:46:03;;;;;;;6.53;4.47;;;;;;;;;;4817159;29;20494;-84
2022/04/25 02:48:32;;;;;;;6.63;4.43;;;;;;;;;;4805632;29;20052;-83
2022/04/25 02:50:58;;;;;;;7.05;4.93;;;;;;;;;;4820089;29;20045;-83
2022/04/25 02:53:24;;;;;;;7.78;4.47;;;;;;;;;;4823815;29;20038;-83
2022/04/25 02:55:53;;;;;;;7.80;4.68;;;;;;;;;;4808835;29;20045;-86
2022/04/25 02:58:20;;;;;;;8.05;4.57;;;;;;;;;;4816631;29;20034;-83
2022/04/25 03:00:46;;;;;;;7.78;4.93;;;;;;;;;;4820107;29;20059;-83
2022/04/25 03:03:15;;;;;;;6.53;4.75;;;;;;;;;;4823425;29;20041;-83
2022/04/25 03:05:48;;;;;;;8.00;4.50;;;;;;;;;;4824446;29;20034;-83
2022/04/25 03:08:17;;;;;;;7.28;4.60;;;;;;;;;;4823478;29;20034;-83
2022/04/25 03:10:43;;;;;;;6.82;4.53;;;;;;;;;;4827722;29;20113;-83
2022/04/25 03:13:09;;;;;;;7.65;4.80;;;;;;;;;;4820920;29;20026;-83
2022/04/25 03:15:38;;;;;;;7.95;4.70;;;;;;;;;;4823759;29;20062;-83
2022/04/25 03:18:05;;;;;;;8.02;5.15;;;;;;;;;;4825953;29;20499;-83
2022/04/25 03:20:31;;;;;;;7.35;5.13;;;;;;;;;;4823158;29;20069;-83
2022/04/25 03:22:57;;;;;;;7.80;5.53;;;;;;;;;;4828098;29;20074;-85
2022/04/25 03:25:23;;;;;;;9.68;5.35;;;;;;;;;;4836736;29;20489;-86
2022/04/25 03:27:48;;;;;;;10.05;5.10;;;;;;;;;;4823637;29;20060;-86
2022/04/25 03:30:13;;;;;;;9.55;5.63;;;;;;;;;;4816276;29;20042;-83
2022/04/25 03:32:46;;;;;;;9.23;5.20;;;;;;;;;;4825608;29;20036;-83
2022/04/25 03:35:16;;;;;;;6.90;4.80;;;;;;;;;;4801565;29;20434;-82
2022/04/25 03:37:42;;;;;;;9.68;5.60;;;;;;;;;;4807609;29;20034;-84
2022/04/25 03:40:09;;;;;;;7.75;4.97;;;;;;;;;;4831825;29;20035;-86
2022/04/25 03:42:36;;;;;;;7.97;4.93;;;;;;;;;;4805977;29;20030;-83
2022/04/25 03:45:03;;;;;;;7.90;4.90;;;;;;;;;;4826913;29;20030;-83
2022/04/25 03:47:29;;;;;;;7.72;5.07;;;;;;;;;;4808561;29;20030;-83
2022/04/25 03:49:54;;;;;;;7.53;5.18;;;;;;;;;;4816507;29;20041;-86
2022/04/25 03:52:20;;;;;;;7.10;4.90;;;;;;;;;;4827903;29;20072;-83
2022/04/25 03:57:29;;;;;;;8.35;5.40;;;;;;;;;;4820196;29;20061;-83
2022/04/25 03:59:54;;;;;;;10.15;5.22;;;;;;;;;;4802666;29;20038;-85
2022/04/25 04:02:20;;;;;;;8.48;5.30;;;;;;;;;;4821644;29;20481;-85
2022/04/25 04:04:45;;;;;;;8.65;5.60;;;;;;;;;;4823451;29;20469;-85
2022/04/25 04:07:11;;;;;;;7.30;4.70;;;;;;;;;;4817299;29;20034;-83
2022/04/25 04:09:45;;;;;;;7.72;5.38;;;;;;;;;;4818337;29;20510;-83
2022/04/25 04:12:12;;;;;;;10.20;5.63;;;;;;;;;;4823179;29;20033;-82
2022/04/25 04:14:37;;;;;;;8.27;5.15;;;;;;;;;;4823246;29;20111;-83
2022/04/25 04:17:06;;;;;;;9.82;5.63;;;;;;;;;;4820109;29;20431;-85
2022/04/25 04:19:31;;;;;;;8.10;5.22;;;;;;;;;;4800443;29;20030;-83
2022/04/25 04:21:57;;;;;;;9.27;5.50;;;;;;;;;;4802256;29;20041;-85
2022/04/25 04:24:22;;;;;;;7.47;4.55;;;;;;;;;;4820638;29;20087;-83
2022/04/25 04:26:47;;;;;;;7.95;5.00;;;;;;;;;;4811602;29;20078;-83
2022/04/25 04:29:13;;;;;;;9.20;5.07;;;;;;;;;;4816654;29;20047;-83
2022/04/25 04:31:38;;;;;;;7.40;4.95;;;;;;;;;;4814676;29;20042;-84
2022/04/25 04:34:04;;;;;;;7.93;5.30;;;;;;;;;;4812383;29;20037;-83
2022/04/25 04:36:29;;;;;;;7.47;5.15;;;;;;;;;;4820761;29;20044;-82
2022/04/25 04:38:54;;;;;;;8.40;4.97;;;;;;;;;;4803532;29;20034;-85
2022/04/25 04:41:20;;;;;;;9.20;5.25;;;;;;;;;;4799846;29;20059;-85
2022/04/25 04:43:45;;;;;;;8.45;5.40;;;;;;;;;;4819474;29;20034;-83
2022/04/25 04:46:10;;;;;;;8.55;5.22;;;;;;;;;;4818404;29;20547;-83
2022/04/25 04:48:36;;;;;;;8.63;5.50;;;;;;;;;;4800238;29;20456;-83
2022/04/25 04:51:01;;;;;;;8.65;5.95;;;;;;;;;;4822797;29;20039;-84
2022/04/25 04:53:27;;;;;;;10.45;6.25;;;;;;;;;;4799562;29;20042;-82
2022/04/25 04:55:53;;;;;;;8.93;5.57;;;;;;;;;;4813373;29;20029;-85
2022/04/25 04:58:19;;;;;;;9.23;5.78;;;;;;;;;;4822591;29;20126;-86
2022/04/25 05:00:45;;;;;;;9.13;5.75;;;;;;;;;;4815174;29;20116;-86
2022/04/25 05:03:15;;;;;;;12.00;6.53;;;;;;;;;;4815837;29;21333;-83
2022/04/25 05:05:44;;;;;;;9.20;5.78;;;;;;;;;;4810849;29;20442;-83
2022/04/25 05:08:10;;;;;;;9.60;5.60;;;;;;;;;;4799384;29;20463;-83
2022/04/25 05:10:35;;;;;;;9.27;5.75;;;;;;;;;;4795451;29;20033;-84
2022/04/25 05:13:01;;;;;;;9.35;5.95;;;;;;;;;;4824853;29;20030;-83
2022/04/25 05:15:26;;;;;;;8.70;5.80;;;;;;;;;;4809864;29;20049;-83
2022/04/25 05:17:55;;;;;;;10.50;5.95;;;;;;;;;;4830377;29;20377;-86
2022/04/25 05:20:23;;;;;;;8.52;5.75;;;;;;;;;;4817128;29;20037;-85
2022/04/25 05:22:50;;;;;;;10.48;5.93;;;;;;;;;;4815135;29;20041;-83
2022/04/25 05:25:18;;;;;;;9.38;6.10;;;;;;;;;;4818811;29;20030;-82
2022/04/25 05:27:49;;;;;;;9.02;6.57;;;;;;;;;;4806131;29;20485;-83
2022/04/25 05:30:16;;;;;;;9.18;6.10;;;;;;;;;;4821065;29;20551;-83
2022/04/25 05:32:47;;;;;;;9.70;6.05;;;;;;;;;;4802374;29;20034;-83
2022/04/25 05:35:17;;;;;;;10.95;6.57;;;;;;;;;;4800219;29;20137;-82
2022/04/25 05:37:44;;;;;;;9.35;6.30;;;;;;;;;;4806415;29;20489;-85
2022/04/25 05:40:11;;;;;;;10.35;6.00;;;;;;;;;;4800134;29;20466;-83
2022/04/25 05:42:42;;;;;;;9.73;5.95;;;;;;;;;;4819386;29;20029;-85
2022/04/25 05:45:14;;;;;;;11.00;6.82;;;;;;;;;;4826359;29;20062;-83
2022/04/25 05:47:40;;;;;;;10.23;6.63;;;;;;;;;;4822149;29;20453;-83
2022/04/25 05:52:51;;;;;;;10.43;6.35;;;;;;;;;;4820379;29;20477;-82
2022/04/25 05:55:17;;;;;;;9.80;6.60;;;;;;;;;;4811469;29;20034;-86
2022/04/25 05:57:43;;;;;;;11.60;6.50;;;;;;;;;;4818206;29;20026;-86
2022/04/25 06:00:10;;;;;;;10.70;6.50;;;;;;;;;;4819674;29;20091;-85
2022/04/25 06:02:40;;;;;;;9.73;7.30;;;;;;;;;;4814429;29;20062;-82
2022/04/25 06:05:06;;;;;;;10.43;6.30;;;;;;;;;;4819130;29;20022;-83
2022/04/25 06:07:33;;;;;;;10.98;6.88;;;;;;;;;;4800372;29;20036;-83
2022/04/25 06:10:00;;;;;;;9.45;6.43;;;;;;;;;;4800928;29;20037;-85
2022/04/25 06:12:26;;;;;;;12.80;6.25;;;;;;;;;;4810324;29;20034;-83
2022/04/25 06:14:53;;;;;;;12.48;7.40;;;;;;;;;;4812840;29;20065;-83
2022/04/25 06:17:19;;;;;;;12.20;6.55;;;;;;;;;;4821482;29;20115;-83
2022/04/25 06:19:44;;;;;;;11.77;6.78;;;;;;;;;;4819136;29;20072;-83
2022/04/25 06:22:09;;;;;;;11.20;6.80;;;;;;;;;;4816202;29;20033;-83
2022/04/25 06:24:35;;;;;;;10.88;7.22;;;;;;;;;;4812696;29;20046;-83
2022/04/25 06:27:02;;;;;;;10.57;6.80;;;;;;;;;;4819097;29;20102;-83
2022/04/25 06:29:29;;;;;;;11.50;7.38;;;;;;;;;;4814510;29;20052;-82
2022/04/25 06:31:54;;;;;;;12.15;7.78;;;;;;;;;;4821670;29;20049;-83
2022/04/25 06:34:20;;;;;;;12.98;7.47;;;;;;;;;;4801129;29;20039;-84
2022/04/25 06:36:45;;;;;;;10.90;7.13;;;;;;;;;;4803420;29;20026;-83
2022/04/25 06:39:11;;;;;;;12.27;7.40;;;;;;;;;;4818589;29;20030;-83
2022/04/25 06:41:36;;;;;;;13.45;7.30;;;;;;;;;;4811208;29;20058;-83
2022/04/25 06:44:02;;;;;;;13.15;7.63;;;;;;;;;;4808664;29;20039;-83
2022/04/25 06:46:29;;;;;;;10.75;7.45;;;;;;;;;;4813950;29;20035;-84
2022/04/25 06:51:38;;;;;;;12.73;7.97;;;;;;;;;;4814740;29;20037;-85
2022/04/25 06:54:03;;;;;;;13.02;8.48;;;;;;;;;;4814171;29;20034;-84
2022/04/25 06:56:29;;;;;;;13.90;8.15;;;;;;;;;;4813918;29;20055;-82
2022/04/25 06:58:54;;;;;;;11.95;8.77;;;;;;;;;;4811752;29;20022;-83
2022/04/25 07:01:20;;;;;;;14.52;8.35;;;;;;;;;;4801940;29;20031;-82
2022/04/25 07:03:46;;;;;;;10.60;7.78;;;;;;;;;;4821006;29;20026;-83
2022/04/25 07:06:11;;;;;;;12.63;8.82;;;;;;;;;;4810216;29;20388;-83
2022/04/25 07:08:36;;;;;;;13.60;8.93;;;;;;;;;;4814742;29;20567;-83
2022/04/25 07:11:11;;;;;;;12.25;8.40;;;;;;;;;;4824884;29;20130;-86
2022/04/25 07:13:45;;;;;;;12.57;8.73;;;;;;;;;;4818834;29;20117;-83
2022/04/25 07:16:14;;;;;;;13.95;8.70;;;;;;;;;;4803151;29;20560;-83
2022/04/25 07:18:40;;;;;;;12.88;8.88;;;;;;;;;;4823339;29;20099;-84
2022/04/25 07:29:26;;;;;;;13.25;8.93;;;;;;;;;;4821300;29;20213;-85
2022/04/25 07:31:58;;;;;;;11.70;8.32;;;;;;;;;;4809509;29;20044;-83
2022/04/25 07:34:32;;;;;;;13.68;8.95;;;;;;;;;;4818339;29;20135;-83
2022/04/25 07:40:27;;;;;;;11.50;8.40;;;;;;;;;;4729346;30;20546;-87
2022/04/25 07:43:31;;;;;;;12.65;8.77;;;;;;;;;;4713850;30;20103;-84
2022/04/25 07:45:59;;;;;;;13.60;9.05;;;;;;;;;;4715052;30;20117;-83
2022/04/25 07:48:32;;;;;;;15.85;9.75;;;;;;;;;;4715907;30;20062;-85
2022/04/25 07:51:00;;;;;;;13.55;9.20;;;;;;;;;;4725947;30;20509;-85
2022/04/25 07:53:30;;;;;;;14.43;10.02;;;;;;;;;;4716150;30;20048;-86
2022/04/25 08:00:01;;;;;;;13.02;8.82;;;;;;;;;;4694484;30;20041;-84
2022/04/25 08:03:01;;;;;;;13.30;8.93;;;;;;;;;;4683636;30;20577;-85
2022/04/25 08:08:33;;;;;;;13.07;8.85;;;;;;;;;;4746128;30;21116;-87
2022/04/25 08:11:08;;;;;;;14.48;9.38;;;;;;;;;;4750887;30;20039;-87
2022/04/25 08:23:36;;;;;;;12.25;8.43;;;;;;;;;;4758789;30;20551;-88
2022/04/25 08:26:35;;;;;;;13.45;8.20;;;;;;;;;;4764515;30;20039;-89
2022/04/25 08:29:36;;;;;;;11.73;7.80;;;;;;;;;;4752932;30;20105;-88
2022/04/25 08:32:36;;;;;;;12.00;7.90;;;;;;;;;;4747486;30;20090;-88
2022/04/25 08:35:09;;;;;;;11.48;8.27;;;;;;;;;;4772250;30;20826;-87
2022/04/25 08:37:47;;;;;;;;;;;;;;;;;;;;;
2022/04/25 08:40:23;;;;;;;11.15;7.10;;;;;;;;;;4763675;29;20045;-86
2022/04/25 08:42:53;;;;;;;13.23;7.63;;;;;;;;;;4806120;29;20047;-88
2022/04/25 08:45:20;;;;;;;12.35;7.93;;;;;;;;;;4791829;29;20497;-88
2022/04/25 08:47:50;;;;;;;11.48;8.05;;;;;;;;;;4807011;29;20053;-89
2022/04/25 08:50:49;;;;;;;11.40;7.75;;;;;;;;;;4795035;29;20427;-88
2022/04/25 08:53:23;;;;;;;11.07;7.68;;;;;;;;;;4788884;29;20158;-87
2022/04/25 08:56:17;;;;;;;10.30;7.15;;;;;;;;;;4796293;29;20038;-88
2022/04/25 08:58:46;;;;;;;9.57;7.00;;;;;;;;;;4801842;29;20047;-87
2022/04/25 09:01:12;;;;;;;11.52;7.22;;;;;;;;;;4804893;29;20476;-87
2022/04/25 09:03:38;;;;;;;11.38;7.32;;;;;;;;;;4803026;29;20761;-88
2022/04/25 09:06:06;;;;;;;11.75;8.32;;;;;;;;;;4810911;29;20105;-89
2022/04/25 09:08:47;;;;;;;11.15;7.45;;;;;;;;;;4810966;29;20045;-89
2022/04/25 09:13:58;;;;;;;10.85;7.78;;;;;;;;;;4848809;29;20072;-88
2022/04/25 09:16:24;;;;;;;10.68;7.30;;;;;;;;;;4832928;29;20089;-88
2022/04/25 09:18:49;;;;;;;12.80;8.63;;;;;;;;;;4830892;29;20045;-89
2022/04/25 09:21:15;;;;;;;12.38;8.35;;;;;;;;;;4832907;29;20041;-88
2022/04/25 09:23:43;;;;;;;11.32;7.45;;;;;;;;;;4831447;29;20834;-88
2022/04/25 09:26:27;;;;;;;;;;;;;;;;;;;;;
2022/04/25 09:28:57;;;;;;;11.32;7.80;;;;;;;;;;4846410;29;20063;-88
2022/04/25 09:31:48;;;;;;;13.63;8.05;;;;;;;;;;4844823;29;20037;-87
2022/04/25 09:34:59;;;;;;;12.40;7.85;;;;;;;;;;4826497;29;20053;-88
2022/04/25 09:37:02;;;;;;;11.60;8.30;;;;;;;;;;4844533;29;20374;-88
2022/04/25 09:39:33;;;;;;;12.18;8.10;;;;;;;;;;4831701;29;20029;-87
2022/04/25 09:42:29;;;;;;;11.75;7.72;;;;;;;;;;4841717;29;20469;-87
2022/04/25 09:45:19;;;;;;;11.73;8.70;;;;;;;;;;4844362;29;20043;-88
2022/04/25 09:47:45;;;;;;;12.00;8.15;;;;;;;;;;4826762;29;20044;-89
2022/04/25 09:50:20;;;;;;;11.68;7.55;;;;;;;;;;4833959;29;20449;-87
2022/04/25 09:56:09;;;;;;;11.52;8.20;;;;;;;;;;4843830;29;20121;-88
2022/04/25 09:58:37;;;;;;;12.77;8.18;;;;;;;;;;4827221;29;20052;-88
2022/04/25 10:01:11;;;;;;;11.07;7.68;;;;;;;;;;4845687;29;20045;-88
2022/04/25 10:03:36;;;;;;;11.15;7.38;;;;;;;;;;4844526;29;20811;-88
2022/04/25 10:06:06;;;;;;;11.40;8.27;;;;;;;;;;4843978;29;20033;-88
2022/04/25 10:08:36;;;;;;;11.65;8.25;;;;;;;;;;4830080;29;20033;-88
2022/04/25 10:11:04;;;;;;;12.18;7.80;;;;;;;;;;4844164;29;20509;-87
2022/04/25 10:13:34;;;;;;;12.25;8.52;;;;;;;;;;4832475;29;20041;-87
2022/04/25 10:16:00;;;;;;;12.73;8.75;;;;;;;;;;4832401;29;20531;-89
2022/04/25 10:18:28;;;;;;;13.48;9.13;;;;;;;;;;4832782;29;20026;-88
2022/04/25 10:20:59;;;;;;;13.63;8.50;;;;;;;;;;4826696;29;20132;-87
2022/04/25 10:23:25;;;;;;;13.88;9.18;;;;;;;;;;4826617;29;20116;-88
2022/04/25 10:25:59;;;;;;;14.38;9.40;;;;;;;;;;4831607;29;20120;-88
2022/04/25 10:28:57;;;;;;;15.05;9.40;;;;;;;;;;4826732;29;20034;-88
2022/04/25 10:31:26;;;;;;;14.20;9.00;;;;;;;;;;4843703;29;20026;-89
2022/04/25 10:34:29;;;;;;;14.52;9.55;;;;;;;;;;4844735;29;20140;-87
2022/04/25 10:37:00;;;;;;;15.98;9.85;;;;;;;;;;4825266;29;20048;-89
2022/04/25 10:39:27;;;;;;;15.98;9.60;;;;;;;;;;4834362;29;20046;-88
2022/04/25 10:44:36;;;;;;;17.30;10.32;;;;;;;;;;4844678;29;20094;-88
2022/04/25 10:47:05;;;;;;;14.45;9.45;;;;;;;;;;4843829;29;20038;-88
2022/04/25 10:49:32;;;;;;;14.70;9.65;;;;;;;;;;4840470;29;20493;-87
2022/04/25 10:51:58;;;;;;;13.02;9.63;;;;;;;;;;4838042;29;20033;-86
2022/04/25 10:54:27;;;;;;;15.25;9.77;;;;;;;;;;4843727;29;20651;-89
2022/04/25 10:57:08;;;;;;;15.82;9.60;;;;;;;;;;4833268;29;20136;-86
2022/04/25 10:59:34;;;;;;;15.00;9.52;;;;;;;;;;4835499;29;20039;-88
2022/04/25 11:01:59;;;;;;;14.90;10.35;;;;;;;;;;4828703;29;20488;-89
2022/04/25 11:04:25;;;;;;;14.65;9.70;;;;;;;;;;4835707;29;20029;-88
2022/04/25 11:07:31;;;;;;;14.63;10.23;;;;;;;;;;4848019;29;20029;-88
2022/04/25 11:13:01;;;;;;;15.32;9.55;;;;;;;;;;4805393;29;20144;-91
2022/04/25 11:15:46;;;;;;;15.30;10.15;;;;;;;;;;4835226;29;20057;-88
2022/04/25 11:18:35;;;;;;;15.48;9.85;;;;;;;;;;4838038;29;20033;-91
2022/04/25 11:21:16;;;;;;;13.23;8.93;;;;;;;;;;4860597;29;20017;-87
2022/04/25 11:24:30;;;;;;;17.13;10.95;;;;;;;;;;4854369;29;20053;-87
2022/04/25 11:26:58;;;;;;;15.27;10.07;;;;;;;;;;4856416;29;20036;-88
2022/04/25 11:30:04;;;;;;;13.55;9.90;;;;;;;;;;4840593;29;20176;-88
2022/04/25 11:32:37;;;;;;;17.25;10.65;;;;;;;;;;4827634;29;20035;-86
2022/04/25 11:35:06;;;;;;;;;;;;;;;;;;4855437;29;20034;-88
2022/04/25 11:37:35;;;;;;;17.27;10.77;;;;;;;;;;4838428;29;20006;-88
2022/04/25 11:40:12;;;;;;;16.63;10.15;;;;;;;;;;4853875;29;20036;-89
2022/04/25 11:42:38;;;;;;;18.52;10.85;;;;;;;;;;4851350;29;20037;-89
2022/04/25 11:45:07;;;;;;;14.95;9.93;;;;;;;;;;4854156;29;20404;-87
2022/04/25 11:47:41;;;;;;;15.43;10.38;;;;;;;;;;4835647;29;20037;-87
2022/04/25 11:50:12;;;;;;;16.50;10.38;;;;;;;;;;4835597;29;20033;-88
2022/04/25 11:52:55;;;;;;;18.35;10.85;;;;;;;;;;4840067;29;20030;-87
2022/04/25 11:55:36;;;;;;;17.17;10.55;;;;;;;;;;4833211;29;20493;-89
2022/04/25 11:58:03;;;;;;;15.77;10.40;;;;;;;;;;4840240;29;20485;-88
2022/04/25 12:00:33;;;;;;;17.05;10.73;;;;;;;;;;4841445;29;20082;-88
2022/04/25 12:02:59;;;;;;;16.30;10.23;;;;;;;;;;4842565;29;20032;-90
2022/04/25 12:05:29;;;;;;;15.95;10.23;;;;;;;;;;4840040;29;20033;-88
2022/04/25 12:16:28;;;;;;;17.40;10.15;;;;;;;;;;4829576;29;20206;-89
2022/04/25 12:19:09;;;;;;;16.60;10.48;;;;;;;;;;4818048;29;20052;-88
2022/04/25 12:21:37;;;;;;;16.30;10.10;;;;;;;;;;4820728;29;20037;-88
2022/04/25 12:24:03;;;;;;;16.17;9.65;;;;;;;;;;4839100;29;20034;-87
2022/04/25 12:30:15;;;;;;;17.45;10.07;;;;;;;;;;4836723;29;20045;-89
2022/04/25 12:32:47;;;;;;;15.05;9.70;;;;;;;;;;4821536;29;21767;-90
2022/04/25 12:35:56;;;;;;;;;;;;;;;;;;;;;
2022/04/25 12:55:58;;;;;;;;;;;;;;;;;;;;;
2022/04/25 12:58:52;;;;;;;16.58;10.15;;;;;;;;;;4734087;30;20073;-91
2022/04/25 13:18:32;;;;;;;;;;;;;;;;;;;;;
2022/04/25 13:24:24;;;;;;;18.33;11.07;;;;;;;;;;4622945;30;20535;-90
2022/04/25 13:27:23;;;;;;;18.33;10.73;;;;;;;;;;4617128;30;20062;-88
2022/04/25 13:33:56;;;;;;;15.93;10.32;;;;;;;;;;4681402;30;20658;-89
2022/04/25 13:36:24;;;;;;;15.68;9.48;;;;;;;;;;4639998;30;20089;-88
2022/04/25 13:42:26;;;;;;;15.35;9.32;;;;;;;;;;4660034;30;20042;-88
2022/04/25 13:45:26;;;;;;;14.90;9.80;;;;;;;;;;4651197;30;20064;-89
2022/04/25 13:51:57;;;;;;;14.00;9.27;;;;;;;;;;4642467;30;20125;-88
2022/04/25 13:55:11;;;;;;;;;;;;;;;;;;;;;
2022/04/25 13:58:09;;;;;;;;;;;;;;;;;;;;;
2022/04/25 14:01:29;;;;;;;12.20;9.07;;;;;;;;;;4641412;30;20055;-89
2022/04/25 14:07:01;;;;;;;13.80;8.35;;;;;;;;;;4628092;30;20074;-89
2022/04/25 14:09:29;;;;;;;14.40;8.88;;;;;;;;;;4663667;30;20454;-88
2022/04/25 14:12:01;;;;;;;12.57;8.68;;;;;;;;;;4658563;30;20129;-87
2022/04/25 14:14:32;;;;;;;12.80;8.65;;;;;;;;;;4879468;24;20062;-85
2022/04/25 14:17:01;;;;;;;13.70;8.68;;;;;;;;;;4836428;29;20049;-88
2022/04/25 14:19:33;;;;;;;13.77;9.07;;;;;;;;;;4836254;29;21555;-88
2022/04/25 14:22:03;;;;;;;13.80;9.30;;;;;;;;;;4851647;29;20056;-85
2022/04/25 14:24:31;;;;;;;13.55;8.90;;;;;;;;;;4853857;29;20041;-85
2022/04/25 14:27:03;;;;;;;14.00;9.10;;;;;;;;;;4851755;29;20090;-87
2022/04/25 14:29:32;;;;;;;15.73;9.60;;;;;;;;;;4836553;29;20041;-86
2022/04/25 14:32:04;;;;;;;13.70;8.90;;;;;;;;;;4840762;29;20047;-90
2022/04/25 14:34:35;;;;;;;15.63;9.13;;;;;;;;;;4842268;29;20049;-88
2022/04/25 14:37:09;;;;;;;11.95;8.50;;;;;;;;;;4841581;29;20035;-86
2022/04/25 14:39:35;;;;;;;17.23;8.57;;;;;;;;;;4838656;29;20058;-85
2022/04/25 14:42:06;;;;;;;14.48;8.95;;;;;;;;;;4840660;29;20122;-86
2022/04/25 14:44:34;;;;;;;14.77;8.82;;;;;;;;;;4839153;29;20030;-86
2022/04/25 14:47:12;;;;;;;13.98;8.85;;;;;;;;;;4854417;29;20030;-88
2022/04/25 14:55:43;;;;;;;13.18;8.48;;;;;;;;;;4856974;29;20359;-88
2022/04/25 14:58:09;;;;;;;14.13;8.20;;;;;;;;;;4853455;29;20029;-87
2022/04/25 15:00:38;;;;;;;17.13;8.75;;;;;;;;;;4841393;29;20046;-85
2022/04/25 15:03:12;;;;;;;15.15;9.20;;;;;;;;;;4842970;29;20033;-85
2022/04/25 15:05:42;;;;;;;12.70;8.32;;;;;;;;;;4857264;29;20116;-87
2022/04/25 15:08:12;;;;;;;13.15;8.18;;;;;;;;;;4837809;29;20030;-86
2022/04/25 15:10:42;;;;;;;11.77;7.93;;;;;;;;;;4835624;29;20030;-89
2022/04/25 15:13:39;;;;;;;13.98;8.57;;;;;;;;;;4985890;24;20075;-87
2022/04/25 15:16:11;;;;;;;14.43;8.60;;;;;;;;;;4772413;30;20051;-89
2022/04/25 15:18:45;;;;;;;17.75;9.32;;;;;;;;;;4751625;30;20044;-88
2022/04/25 15:21:12;;;;;;;13.07;8.77;;;;;;;;;;4748336;30;20536;-88
2022/04/25 15:23:43;;;;;;;13.27;8.63;;;;;;;;;;4757447;30;20087;-88
2022/04/25 15:26:11;;;;;;;12.15;8.07;;;;;;;;;;4750215;30;20104;-86
2022/04/25 15:28:42;;;;;;;14.68;8.45;;;;;;;;;;4764145;30;20125;-90
2022/04/25 15:31:43;;;;;;;13.27;8.25;;;;;;;;;;4749606;30;20110;-88
2022/04/25 15:37:15;;;;;;;14.32;8.80;;;;;;;;;;4728092;30;20053;-85
2022/04/25 15:39:44;;;;;;;14.18;8.32;;;;;;;;;;4727957;30;20454;-85
2022/04/25 15:42:46;;;;;;;12.52;8.73;;;;;;;;;;4729450;30;20073;-88
2022/04/25 15:45:50;;;;;;;13.35;8.23;;;;;;;;;;4675002;30;20046;-87
2022/04/25 15:48:15;;;;;;;13.70;8.90;;;;;;;;;;4630646;30;20051;-86
2022/04/25 16:03:47;;;;;;;11.80;7.82;;;;;;;;;;4699646;30;20076;-88
2022/04/25 16:06:19;;;;;;;11.07;7.63;;;;;;;;;;4698558;30;20163;-86
2022/04/25 16:12:22;;;;;;;15.07;8.07;;;;;;;;;;4682984;30;20045;-89
2022/04/25 16:14:50;;;;;;;12.35;7.88;;;;;;;;;;4650176;30;20054;-86
2022/04/25 16:20:22;;;;;;;12.35;8.43;;;;;;;;;;4660118;30;20052;-86
2022/04/25 16:22:51;;;;;;;11.82;7.82;;;;;;;;;;4647403;30;20100;-88
2022/04/25 16:28:52;;;;;;;12.23;7.85;;;;;;;;;;4661191;30;20041;-86
2022/04/25 16:31:53;;;;;;;11.77;8.38;;;;;;;;;;4731155;30;20079;-86
2022/04/25 16:34:27;;;;;;;13.05;8.18;;;;;;;;;;4723339;30;20048;-86
2022/04/25 16:36:55;;;;;;;16.55;9.82;;;;;;;;;;4712671;30;20155;-86
2022/04/25 16:39:30;;;;;;;15.10;9.50;;;;;;;;;;4713037;30;20508;-86
2022/04/25 16:42:24;;;;;;;17.10;10.63;;;;;;;;;;4727369;30;20063;-88
2022/04/25 16:44:55;;;;;;;16.70;9.77;;;;;;;;;;4694193;30;20046;-89
2022/04/25 16:47:56;;;;;;;16.77;10.15;;;;;;;;;;4691005;30;20521;-90
2022/04/25 16:50:56;;;;;;;15.52;10.25;;;;;;;;;;4645883;30;20050;-88
2022/04/25 16:53:57;;;;;;;17.45;10.30;;;;;;;;;;4609847;31;20165;-87
2022/04/25 16:56:57;;;;;;;15.20;9.85;;;;;;;;;;4564842;31;20088;-86
2022/04/25 17:02:32;;;;;;;16.67;10.52;;;;;;;;;;4557775;31;20044;-86
2022/04/25 17:04:58;;;;;;;16.40;10.63;;;;;;;;;;4590391;30;20475;-88
2022/04/25 17:07:33;;;;;;;14.70;9.98;;;;;;;;;;4631461;30;20039;-86
2022/04/25 17:09:58;;;;;;;15.00;10.77;;;;;;;;;;4643267;30;20077;-86
